createdAt,value
2023-03-19T00:00:33.914Z,100945.44
2023-03-19T00:03:00.675Z,100974.69
2023-03-19T00:05:27.252Z,100937.88
2023-03-19T00:07:53.644Z,100977.09
2023-03-19T00:10:20.557Z,100919.66
2023-03-19T00:12:47.392Z,100978.50
2023-03-19T00:15:15.324Z,100975.44
2023-03-19T00:17:43.004Z,100964.34
2023-03-19T00:20:11.677Z,100924.03
2023-03-19T00:22:39.800Z,100912.13
2023-03-19T00:25:08.152Z,100955.22
2023-03-19T00:27:34.852Z,100938.56
2023-03-19T00:30:02.537Z,100984.91
2023-03-19T00:32:29.287Z,100980.97
2023-03-19T00:34:55.716Z,100978.84
2023-03-19T00:37:22.541Z,100955.13
2023-03-19T00:39:49.158Z,100869.88
2023-03-19T00:42:15.638Z,100926.34
2023-03-19T00:44:42.114Z,100888.13
2023-03-19T00:47:08.645Z,100991.25
2023-03-19T00:49:35.269Z,100909.59
2023-03-19T00:52:01.763Z,100981.00
2023-03-19T00:54:28.176Z,100953.56
2023-03-19T00:56:54.590Z,100923.63
2023-03-19T00:59:21.032Z,100995.72
2023-03-19T01:01:47.569Z,100923.56
2023-03-19T01:04:15.108Z,100989.09
2023-03-19T01:06:41.837Z,100995.84
2023-03-19T01:09:08.467Z,100947.44
2023-03-19T01:11:35.262Z,100998.06
2023-03-19T01:14:02.484Z,100994.69
2023-03-19T01:16:29.123Z,100964.59
2023-03-19T01:18:55.625Z,100964.53
2023-03-19T01:21:22.077Z,100919.97
2023-03-19T01:23:48.686Z,100946.00
2023-03-19T01:26:15.313Z,100972.09
2023-03-19T01:28:41.900Z,100912.47
2023-03-19T01:31:09.522Z,100970.97
2023-03-19T01:33:37.584Z,100963.69
2023-03-19T01:36:05.479Z,100989.88
2023-03-19T01:38:32.542Z,100914.56
2023-03-19T01:40:59.246Z,100953.69
2023-03-19T01:43:28.782Z,100925.56
2023-03-19T01:46:27.090Z,100907.16
2023-03-19T01:49:00.101Z,100920.09
2023-03-19T01:51:31.962Z,100988.47
2023-03-19T01:54:09.377Z,100940.09
2023-03-19T01:56:38.609Z,100977.13
2023-03-19T01:59:17.872Z,100939.00
2023-03-19T02:01:58.249Z,100974.59
2023-03-19T02:04:27.296Z,100926.94
2023-03-19T02:06:58.032Z,100956.91
2023-03-19T02:09:26.097Z,100936.19
2023-03-19T02:11:54.189Z,100955.09
2023-03-19T02:14:21.507Z,100868.19
2023-03-19T02:16:48.219Z,100916.94
2023-03-19T02:19:22.102Z,100956.91
2023-03-19T02:21:49.619Z,100924.41
2023-03-19T02:24:22.975Z,100974.06
2023-03-19T02:26:50.562Z,100905.41
2023-03-19T02:29:17.415Z,100973.03
2023-03-19T02:31:44.249Z,100929.69
2023-03-19T02:34:38.715Z,100961.38
2023-03-19T02:37:19.775Z,100955.69
2023-03-19T02:40:04.713Z,100924.31
2023-03-19T02:42:31.493Z,100943.78
2023-03-19T02:44:58.411Z,100984.16
2023-03-19T02:47:26.380Z,100955.47
2023-03-19T02:49:53.224Z,100977.66
2023-03-19T02:52:20.190Z,100944.19
2023-03-19T02:54:46.688Z,100960.78
2023-03-19T02:57:13.497Z,100918.81
2023-03-19T02:59:40.120Z,100973.81
2023-03-19T03:02:07.095Z,100995.41
2023-03-19T03:04:34.823Z,100958.44
2023-03-19T03:07:01.715Z,100925.94
2023-03-19T03:09:28.169Z,100926.44
2023-03-19T03:11:54.672Z,100978.94
2023-03-19T03:14:21.109Z,100897.06
2023-03-19T03:16:47.541Z,100939.44
2023-03-19T03:19:14.218Z,100974.75
2023-03-19T03:21:41.200Z,100925.38
2023-03-19T03:24:07.993Z,100966.13
2023-03-19T03:26:35.999Z,100886.22
2023-03-19T03:29:02.491Z,100908.47
2023-03-19T03:31:30.261Z,100928.75
2023-03-19T03:33:56.732Z,100978.56
2023-03-19T03:36:23.730Z,100942.97
2023-03-19T03:38:50.333Z,100902.59
2023-03-19T03:41:16.878Z,100954.38
2023-03-19T03:43:43.307Z,100884.13
2023-03-19T03:46:09.845Z,100961.72
2023-03-19T03:48:36.294Z,100918.16
2023-03-19T03:51:03.345Z,100972.03
2023-03-19T03:53:32.459Z,100949.81
2023-03-19T03:55:59.295Z,100936.06
2023-03-19T03:58:25.987Z,100984.47
2023-03-19T04:00:52.705Z,100979.72
2023-03-19T04:03:19.521Z,100985.63
2023-03-19T04:05:46.256Z,100976.53
2023-03-19T04:08:12.756Z,100985.38
2023-03-19T04:10:40.652Z,100942.78
2023-03-19T04:13:07.102Z,100909.44
2023-03-19T04:15:33.999Z,100905.38
2023-03-19T04:18:01.100Z,100963.34
2023-03-19T04:20:27.573Z,100925.22
2023-03-19T04:22:53.974Z,100985.28
2023-03-19T04:25:20.645Z,100977.78
2023-03-19T04:27:47.131Z,100982.16
2023-03-19T04:30:14.382Z,100989.22
2023-03-19T04:32:41.061Z,100962.78
2023-03-19T04:35:08.155Z,100964.78
2023-03-19T04:37:34.988Z,100963.75
2023-03-19T04:40:01.473Z,100982.59
2023-03-19T04:42:28.043Z,100988.81
2023-03-19T04:44:54.506Z,100962.53
2023-03-19T04:47:21.034Z,100925.84
2023-03-19T04:49:48.799Z,100940.31
2023-03-19T04:52:18.913Z,100922.63
2023-03-19T04:54:45.663Z,100924.31
2023-03-19T04:57:12.431Z,100991.69
2023-03-19T04:59:38.886Z,100980.06
2023-03-19T05:02:06.096Z,101000.09
2023-03-19T05:04:32.624Z,100956.66
2023-03-19T05:06:59.264Z,100965.78
2023-03-19T05:09:26.056Z,101000.88
2023-03-19T05:11:52.541Z,100925.66
2023-03-19T05:14:19.057Z,100904.72
2023-03-19T05:16:45.505Z,100939.84
2023-03-19T05:19:12.207Z,100980.38
2023-03-19T05:21:39.031Z,100942.16
2023-03-19T05:24:05.509Z,100994.16
2023-03-19T05:26:32.309Z,100995.84
2023-03-19T05:28:58.892Z,100938.78
2023-03-19T05:31:25.705Z,100912.09
2023-03-19T05:33:52.350Z,100842.50
2023-03-19T05:36:19.094Z,100938.81
2023-03-19T05:38:45.852Z,100998.13
2023-03-19T05:41:12.344Z,100922.94
2023-03-19T05:43:38.780Z,100926.72
2023-03-19T05:46:05.338Z,100964.25
2023-03-19T05:48:31.913Z,100942.91
2023-03-19T05:50:59.319Z,101005.16
2023-03-19T05:53:25.903Z,100995.00
2023-03-19T05:55:52.335Z,100949.78
2023-03-19T05:58:18.867Z,101006.28
2023-03-19T06:00:45.864Z,101010.63
2023-03-19T06:03:12.365Z,100967.09
2023-03-19T06:05:39.269Z,100995.72
2023-03-19T06:08:06.204Z,100972.16
2023-03-19T06:10:35.353Z,100951.34
2023-03-19T06:13:02.095Z,100999.09
2023-03-19T06:15:28.540Z,100968.19
2023-03-19T06:17:54.987Z,100985.06
2023-03-19T06:20:21.885Z,100974.81
2023-03-19T06:22:48.403Z,101016.56
2023-03-19T06:25:15.144Z,100980.84
2023-03-19T06:27:41.624Z,101000.69
2023-03-19T06:30:09.167Z,100990.41
2023-03-19T06:32:36.159Z,100981.25
2023-03-19T06:35:03.115Z,101031.59
2023-03-19T06:37:29.529Z,101003.50
2023-03-19T06:39:56.189Z,100974.69
2023-03-19T06:42:23.032Z,101034.13
2023-03-19T06:44:52.317Z,101008.53
2023-03-19T06:47:19.969Z,101043.94
2023-03-19T06:49:46.440Z,101025.81
2023-03-19T06:52:12.931Z,101038.88
2023-03-19T06:54:39.397Z,100937.13
2023-03-19T06:57:06.007Z,100953.59
2023-03-19T06:59:32.793Z,101001.75
2023-03-19T07:01:59.353Z,101046.88
2023-03-19T07:04:26.035Z,101034.34
2023-03-19T07:06:52.575Z,101004.81
2023-03-19T07:09:19.021Z,100994.09
2023-03-19T07:11:45.730Z,100986.38
2023-03-19T07:14:12.220Z,101055.16
2023-03-19T07:16:39.447Z,101042.63
2023-03-19T07:19:05.986Z,101035.28
2023-03-19T07:21:32.577Z,101055.06
2023-03-19T07:23:59.290Z,100989.75
2023-03-19T07:26:25.803Z,101069.72
2023-03-19T07:28:52.446Z,101074.66
2023-03-19T07:31:19.014Z,100973.47
2023-03-19T07:33:45.426Z,101043.84
2023-03-19T07:36:12.152Z,101033.97
2023-03-19T07:38:38.647Z,101032.44
2023-03-19T07:41:05.394Z,101076.66
2023-03-19T07:43:31.883Z,101011.09
2023-03-19T07:45:59.449Z,101071.81
2023-03-19T07:48:26.206Z,101033.16
2023-03-19T07:50:53.259Z,101078.66
2023-03-19T07:53:20.548Z,101053.31
2023-03-19T07:55:47.748Z,101059.09
2023-03-19T07:58:14.776Z,101017.53
2023-03-19T08:00:41.452Z,101075.34
2023-03-19T08:03:08.364Z,101082.31
2023-03-19T08:05:34.941Z,101059.63
2023-03-19T08:08:01.777Z,101090.41
2023-03-19T08:10:28.449Z,101060.88
2023-03-19T08:12:54.934Z,101079.44
2023-03-19T08:15:21.475Z,101055.34
2023-03-19T08:17:49.076Z,100987.09
2023-03-19T08:20:16.666Z,101083.38
2023-03-19T08:22:43.253Z,101097.69
2023-03-19T08:25:10.959Z,101029.13
2023-03-19T08:27:37.843Z,101076.75
2023-03-19T08:30:07.507Z,101098.78
2023-03-19T08:32:34.362Z,101046.63
2023-03-19T08:35:01.492Z,101069.22
2023-03-19T08:37:28.182Z,101077.63
2023-03-19T08:39:54.806Z,101017.44
2023-03-19T08:42:22.644Z,101094.81
2023-03-19T08:44:49.947Z,101072.47
2023-03-19T08:47:16.534Z,100988.06
2023-03-19T08:49:42.949Z,100994.97
2023-03-19T08:52:10.485Z,101099.22
2023-03-19T08:54:43.420Z,101016.34
2023-03-19T08:57:10.043Z,101057.69
2023-03-19T08:59:36.619Z,101079.53
2023-03-19T09:02:03.640Z,101031.28
2023-03-19T09:04:37.503Z,101104.66
2023-03-19T09:07:03.983Z,101069.84
2023-03-19T09:09:30.605Z,101064.59
2023-03-19T09:11:57.030Z,101065.53
2023-03-19T09:14:23.817Z,101083.13
2023-03-19T09:16:50.694Z,101131.13
2023-03-19T09:19:17.486Z,101071.50
2023-03-19T09:21:44.718Z,101073.97
2023-03-19T09:24:11.509Z,101043.81
2023-03-19T09:26:38.024Z,101066.34
2023-03-19T09:29:04.953Z,101103.75
2023-03-19T09:31:31.524Z,101081.09
2023-03-19T09:33:58.108Z,101125.13
2023-03-19T09:36:25.503Z,101087.22
2023-03-19T09:38:52.523Z,101077.31
2023-03-19T09:41:49.560Z,101130.03
2023-03-19T09:44:30.842Z,101138.09
2023-03-19T09:47:32.468Z,101147.88
2023-03-19T09:50:21.091Z,101142.31
2023-03-19T09:52:50.895Z,101143.03
2023-03-19T09:55:23.395Z,101142.66
2023-03-19T09:57:51.426Z,101121.50
2023-03-19T10:00:24.639Z,101138.56
2023-03-19T10:03:18.483Z,101146.94
2023-03-19T10:05:57.107Z,101057.84
2023-03-19T10:08:46.729Z,101144.78
2023-03-19T10:11:31.118Z,101147.44
2023-03-19T10:14:32.479Z,101131.59
2023-03-19T10:17:01.139Z,101097.84
2023-03-19T10:19:47.415Z,101150.25
2023-03-19T10:22:24.628Z,101131.16
2023-03-19T10:24:56.204Z,101090.91
2023-03-19T10:27:26.155Z,101136.91
2023-03-19T10:29:52.693Z,101072.69
2023-03-19T10:32:59.711Z,101143.63
2023-03-19T10:35:41.252Z,101148.03
2023-03-19T10:38:25.516Z,101140.94
2023-03-19T10:41:31.752Z,101143.44
2023-03-19T10:44:12.122Z,101122.16
2023-03-19T10:46:39.851Z,101131.13
2023-03-19T10:49:13.066Z,101147.25
2023-03-19T10:51:39.989Z,101153.47
2023-03-19T10:54:23.682Z,101162.19
2023-03-19T10:56:51.443Z,101157.31
2023-03-19T10:59:23.002Z,101150.56
2023-03-19T11:01:49.622Z,101145.19
2023-03-19T11:04:22.034Z,101158.34
2023-03-19T11:09:51.537Z,101154.66
2023-03-19T11:12:35.251Z,101151.84
2023-03-19T11:15:07.683Z,101129.72
2023-03-19T11:17:39.613Z,101116.00
2023-03-19T11:20:22.581Z,101123.84
2023-03-19T11:22:52.483Z,101148.75
2023-03-19T11:25:23.730Z,101132.72
2023-03-19T11:28:06.960Z,101146.63
2023-03-19T11:30:43.920Z,101145.19
2023-03-19T11:33:33.082Z,101143.53
2023-03-19T11:36:13.757Z,101148.38
2023-03-19T11:38:54.656Z,101116.19
2023-03-19T11:41:49.201Z,101154.47
2023-03-19T11:44:47.967Z,101145.00
2023-03-19T11:47:40.919Z,101139.16
2023-03-19T11:50:19.574Z,101143.78
2023-03-19T11:53:07.911Z,101152.09
2023-03-19T11:55:48.039Z,101093.09
2023-03-19T11:58:52.073Z,101148.94
2023-03-19T12:01:21.421Z,101148.81
2023-03-19T12:04:00.236Z,101139.81
2023-03-19T12:06:54.887Z,101151.66
2023-03-19T12:09:38.948Z,101127.06
2023-03-19T12:12:17.783Z,101152.09
2023-03-19T12:15:22.566Z,101148.69
2023-03-19T12:18:21.646Z,101139.91
2023-03-19T12:21:50.469Z,101147.81
2023-03-19T12:24:34.055Z,101149.38
2023-03-19T12:27:35.055Z,101149.78
2023-03-19T12:30:30.643Z,101141.84
2023-03-19T12:33:09.155Z,101146.34
2023-03-19T12:35:38.979Z,101132.88
2023-03-19T12:38:21.448Z,101119.06
2023-03-19T12:40:53.589Z,101098.03
2023-03-19T12:43:43.070Z,101128.69
2023-03-19T12:46:16.067Z,101133.06
2023-03-19T12:48:51.216Z,101085.25
2023-03-19T12:51:21.700Z,101069.56
2023-03-19T12:54:01.468Z,101062.72
2023-03-19T12:56:32.901Z,101145.44
2023-03-19T12:59:13.655Z,101126.81
2023-03-19T13:01:47.685Z,101085.00
2023-03-19T13:04:26.367Z,101116.47
2023-03-19T13:07:03.167Z,101137.19
2023-03-19T13:09:43.902Z,101145.38
2023-03-19T13:12:15.991Z,101088.63
2023-03-19T13:15:14.504Z,101091.31
2023-03-19T13:17:49.040Z,101103.44
2023-03-19T13:20:40.544Z,101140.28
2023-03-19T13:23:09.878Z,101088.34
2023-03-19T13:25:42.868Z,101139.63
2023-03-19T13:28:22.481Z,101133.97
2023-03-19T13:31:00.801Z,101056.31
2023-03-19T13:33:30.377Z,101117.59
2023-03-19T13:35:57.738Z,101133.00
2023-03-19T13:38:34.890Z,101129.59
2023-03-19T13:41:02.172Z,101074.22
2023-03-19T13:43:29.190Z,101126.38
2023-03-19T13:46:15.820Z,101129.72
2023-03-19T13:48:45.766Z,101135.28
2023-03-19T13:51:12.296Z,101126.50
2023-03-19T13:53:53.576Z,101075.31
2023-03-19T13:56:29.542Z,101131.28
2023-03-19T13:59:15.655Z,101121.88
2023-03-19T14:01:44.800Z,101123.19
2023-03-19T14:04:22.812Z,101125.63
2023-03-19T14:06:53.326Z,101125.91
2023-03-19T14:09:40.058Z,101120.47
2023-03-19T14:12:23.201Z,101122.41
2023-03-19T14:15:00.709Z,101033.50
2023-03-19T14:17:34.566Z,101123.50
2023-03-19T14:20:25.867Z,101133.25
2023-03-19T14:23:39.468Z,101084.53
2023-03-19T14:26:24.251Z,101123.50
2023-03-19T14:28:58.788Z,101120.75
2023-03-19T14:32:05.765Z,101075.91
2023-03-19T14:34:42.945Z,101110.66
2023-03-19T14:37:24.987Z,101115.53
2023-03-19T14:40:00.006Z,101132.06
2023-03-19T14:42:32.352Z,101100.34
2023-03-19T14:45:31.138Z,101125.97
2023-03-19T14:48:16.610Z,101077.06
2023-03-19T14:51:23.118Z,101138.31
2023-03-19T14:54:21.578Z,101131.22
2023-03-19T14:56:48.753Z,101139.91
2023-03-19T14:59:15.955Z,101131.13
2023-03-19T15:01:49.987Z,101140.78
2023-03-19T15:04:17.979Z,101119.47
2023-03-19T15:06:57.879Z,101058.69
2023-03-19T15:09:33.543Z,101083.13
2023-03-19T15:12:18.020Z,101147.56
2023-03-19T15:15:15.438Z,101150.69
2023-03-19T15:17:45.308Z,101101.91
2023-03-19T15:20:18.746Z,101067.50
2023-03-19T15:22:54.636Z,101102.44
2023-03-19T15:25:21.697Z,101094.00
2023-03-19T15:28:13.651Z,101157.56
2023-03-19T15:30:53.837Z,101136.91
2023-03-19T15:33:40.885Z,101169.22
2023-03-19T15:36:13.433Z,101134.63
2023-03-19T15:39:02.922Z,101177.91
2023-03-19T15:41:32.425Z,101155.22
2023-03-19T15:44:06.384Z,101137.94
2023-03-19T15:46:37.545Z,101146.44
2023-03-19T15:49:30.349Z,101171.25
2023-03-19T15:52:01.529Z,101131.03
2023-03-19T15:54:28.387Z,101180.94
2023-03-19T15:56:56.377Z,101175.72
2023-03-19T15:59:27.397Z,101150.25
2023-03-19T16:01:59.442Z,101113.28
2023-03-19T16:04:29.607Z,101149.25
2023-03-19T16:06:59.095Z,101151.75
2023-03-19T16:09:33.166Z,101169.16
2023-03-19T16:12:01.277Z,101144.19
2023-03-19T16:14:35.756Z,101175.22
2023-03-19T16:17:13.576Z,101169.22
2023-03-19T16:19:52.533Z,101179.41
2023-03-19T16:22:33.106Z,101144.16
2023-03-19T16:25:01.914Z,101179.69
2023-03-19T16:27:36.248Z,101164.03
2023-03-19T16:30:04.115Z,101170.28
2023-03-19T16:32:32.107Z,101150.31
2023-03-19T16:35:12.420Z,101070.38
2023-03-19T16:37:46.686Z,101192.00
2023-03-19T16:40:13.251Z,101195.78
2023-03-19T16:42:51.233Z,101147.34
2023-03-19T16:45:27.449Z,101091.38
2023-03-19T16:47:56.966Z,101145.75
2023-03-19T16:50:44.201Z,101222.78
2023-03-19T16:53:22.243Z,101218.16
2023-03-19T16:55:49.318Z,101215.84
2023-03-19T16:58:19.038Z,101184.25
2023-03-19T17:00:48.865Z,101169.81
2023-03-19T17:03:17.916Z,101130.50
2023-03-19T17:05:46.399Z,101214.44
2023-03-19T17:08:13.512Z,101174.41
2023-03-19T17:10:49.337Z,101189.19
2023-03-19T17:13:28.264Z,101221.34
2023-03-19T17:15:56.947Z,101175.22
2023-03-19T17:18:25.262Z,101190.03
2023-03-19T17:21:00.758Z,101146.38
2023-03-19T17:23:27.903Z,101223.81
2023-03-19T17:25:54.886Z,101224.41
2023-03-19T17:28:21.971Z,101160.03
2023-03-19T17:30:49.152Z,101167.38
2023-03-19T17:33:23.724Z,101240.09
2023-03-19T17:35:51.468Z,101193.03
2023-03-19T17:38:19.262Z,101247.53
2023-03-19T17:40:46.475Z,101208.75
2023-03-19T17:43:13.637Z,101243.38
2023-03-19T17:45:49.214Z,101228.00
2023-03-19T17:48:25.779Z,101257.72
2023-03-19T17:50:58.208Z,101249.06
2023-03-19T17:53:24.925Z,101247.31
2023-03-19T17:55:51.922Z,101248.22
2023-03-19T17:58:21.233Z,101205.66
2023-03-19T18:00:49.958Z,101178.13
2023-03-19T18:03:18.708Z,101186.88
2023-03-19T18:05:45.640Z,101245.66
2023-03-19T18:08:17.527Z,101233.53
2023-03-19T18:10:44.493Z,101212.53
2023-03-19T18:13:11.234Z,101076.84
2023-03-19T18:15:40.193Z,101231.75
2023-03-19T18:18:11.172Z,101237.16
2023-03-19T18:20:39.579Z,101228.25
2023-03-19T18:23:06.792Z,101270.75
2023-03-19T18:25:35.503Z,101217.63
2023-03-19T18:28:03.603Z,101239.63
2023-03-19T18:30:33.427Z,101271.47
2023-03-19T18:33:02.852Z,101175.44
2023-03-19T18:35:36.463Z,101274.63
2023-03-19T18:38:03.344Z,101279.31
2023-03-19T18:40:33.026Z,101240.19
2023-03-19T18:42:59.620Z,101278.78
2023-03-19T18:45:30.933Z,101290.47
2023-03-19T18:47:57.914Z,101255.00
2023-03-19T18:50:29.338Z,101293.03
2023-03-19T18:52:56.417Z,101185.13
2023-03-19T18:55:30.346Z,101244.09
2023-03-19T18:58:00.527Z,101305.38
2023-03-19T19:00:33.464Z,101311.88
2023-03-19T19:03:01.929Z,101317.50
2023-03-19T19:05:30.781Z,101331.84
2023-03-19T19:07:58.898Z,101305.34
2023-03-19T19:10:30.953Z,101269.69
2023-03-19T19:12:57.705Z,101099.47
2023-03-19T19:15:25.760Z,101335.69
2023-03-19T19:17:52.878Z,101343.28
2023-03-19T19:20:25.582Z,101340.31
2023-03-19T19:22:53.056Z,101361.59
2023-03-19T19:25:25.558Z,101338.91
2023-03-19T19:28:01.050Z,101363.56
2023-03-19T19:30:28.797Z,101306.19
2023-03-19T19:32:55.307Z,101283.19
2023-03-19T19:35:24.515Z,101287.97
2023-03-19T19:37:51.674Z,101384.78
2023-03-19T19:40:21.392Z,101313.44
2023-03-19T19:42:52.471Z,101347.06
2023-03-19T19:45:23.846Z,101394.59
2023-03-19T19:47:50.359Z,101349.03
2023-03-19T19:50:18.549Z,101391.66
2023-03-19T19:52:45.435Z,101398.81
2023-03-19T19:55:11.938Z,101273.69
2023-03-19T19:57:42.837Z,101394.69
2023-03-19T20:00:16.857Z,101387.47
2023-03-19T20:02:43.288Z,101378.41
2023-03-19T20:05:23.160Z,101394.22
2023-03-19T20:07:55.436Z,101388.16
2023-03-19T20:10:24.429Z,101355.53
2023-03-19T20:12:54.313Z,101402.09
2023-03-19T20:15:27.341Z,101383.03
2023-03-19T20:17:54.815Z,101403.34
2023-03-19T20:20:32.357Z,101382.00
2023-03-19T20:23:01.516Z,101402.75
2023-03-19T20:25:30.602Z,101389.44
2023-03-19T20:27:59.754Z,101422.41
2023-03-19T20:30:38.787Z,101373.44
2023-03-19T20:33:06.124Z,101405.28
2023-03-19T20:35:36.101Z,101441.31
2023-03-19T20:38:05.279Z,101408.16
2023-03-19T20:40:34.255Z,101435.91
2023-03-19T20:43:01.724Z,101416.25
2023-03-19T20:45:36.909Z,101437.19
2023-03-19T20:48:04.207Z,101403.84
2023-03-19T20:50:33.028Z,101445.34
2023-03-19T20:53:03.601Z,101443.31
2023-03-19T20:55:33.849Z,101373.31
2023-03-19T20:58:03.833Z,101440.63
2023-03-19T21:00:33.121Z,101449.47
2023-03-19T21:03:01.712Z,101409.44
2023-03-19T21:05:34.419Z,101449.72
2023-03-19T21:08:01.312Z,101364.16
2023-03-19T21:10:43.007Z,101451.41
2023-03-19T21:13:13.501Z,101386.16
2023-03-19T21:15:40.679Z,101386.16
2023-03-19T21:18:08.388Z,101331.22
2023-03-19T21:20:35.829Z,101397.44
2023-03-19T21:23:08.737Z,101455.38
2023-03-19T21:25:36.749Z,101432.06
2023-03-19T21:28:07.246Z,101453.28
2023-03-19T21:30:41.502Z,101454.00
2023-03-19T21:33:28.906Z,101374.88
2023-03-19T21:35:56.463Z,101435.88
2023-03-19T21:38:23.827Z,101463.72
2023-03-19T21:40:53.974Z,101434.66
2023-03-19T21:43:23.453Z,101278.31
2023-03-19T21:45:51.482Z,101331.53
2023-03-19T21:48:24.019Z,101386.94
2023-03-19T21:50:51.873Z,101457.47
2023-03-19T21:53:19.431Z,101387.44
2023-03-19T21:55:46.417Z,101450.75
2023-03-19T21:58:14.836Z,101438.91
2023-03-19T22:00:41.718Z,101411.41
2023-03-19T22:03:16.192Z,101428.22
2023-03-19T22:05:42.721Z,101392.19
2023-03-19T22:08:09.315Z,101409.47
2023-03-19T22:10:36.484Z,101421.66
2023-03-19T22:13:03.804Z,101376.31
2023-03-19T22:15:37.665Z,101455.78
2023-03-19T22:18:07.256Z,101450.19
2023-03-19T22:20:33.698Z,101374.09
2023-03-19T22:23:00.443Z,101393.31
2023-03-19T22:25:35.332Z,101417.53
2023-03-19T22:28:07.635Z,101441.56
2023-03-19T22:30:37.218Z,101411.03
2023-03-19T22:33:21.405Z,101456.69
2023-03-19T22:35:51.798Z,101393.06
2023-03-19T22:38:19.108Z,101452.94
2023-03-19T22:40:48.333Z,101446.91
2023-03-19T22:43:30.626Z,101392.78
2023-03-19T22:46:07.717Z,101432.00
2023-03-19T22:48:34.460Z,101222.06
2023-03-19T22:51:01.133Z,101476.94
2023-03-19T22:53:36.419Z,101456.41
2023-03-19T22:56:04.092Z,101453.03
2023-03-19T22:58:31.182Z,101409.78
2023-03-19T23:00:58.173Z,101434.53
2023-03-19T23:03:34.816Z,101432.47
2023-03-19T23:06:05.392Z,101383.34
2023-03-19T23:08:31.898Z,101369.28
2023-03-19T23:10:58.527Z,101391.28
2023-03-19T23:13:25.811Z,101442.34
2023-03-19T23:15:58.779Z,101430.50
2023-03-19T23:18:36.731Z,101419.09
2023-03-19T23:21:03.991Z,101378.00
2023-03-19T23:23:33.710Z,101439.78
2023-03-19T23:26:00.543Z,101382.50
2023-03-19T23:28:31.988Z,101435.28
2023-03-19T23:31:02.870Z,101433.59
2023-03-19T23:33:30.324Z,101340.88
2023-03-19T23:35:59.452Z,101365.13
2023-03-19T23:38:26.474Z,101389.41
2023-03-19T23:40:53.913Z,101371.88
2023-03-19T23:43:27.239Z,101379.97
2023-03-19T23:45:55.202Z,101387.97
2023-03-19T23:48:26.621Z,101321.56
2023-03-19T23:50:53.571Z,101432.88
2023-03-19T23:53:25.153Z,101393.63
2023-03-19T23:56:01.040Z,101398.78
2023-03-19T23:58:42.857Z,101337.78
